Time;durP1;ratioP1;P1;durP2;ratioP2;P2;SDS_P1;SDS_P2;PMS_P1;PMS_P2;Temp;Humidity;BMP_temperature;BMP_pressure;BME280_temperature;BME280_humidity;BME280_pressure;Samples;Min_cycle;Max_cycle;Signal;HPM_P1;HPM_P2
2022/11/07 00:01:48;;;;;;;;;;;19.00;70.40;;;;;;4493741;31;20067;-72
2022/11/07 00:04:13;;;;;;;;;;;19.00;70.40;;;;;;4493518;31;19981;-72
2022/11/07 00:06:39;;;;;;;;;;;19.00;70.40;;;;;;4493211;31;20298;-72
2022/11/07 00:09:05;;;;;;;;;;;19.00;70.50;;;;;;4493681;31;20028;-72
2022/11/07 00:11:31;;;;;;;;;;;19.00;70.50;;;;;;4493283;31;20039;-72
2022/11/07 00:13:57;;;;;;;;;;;19.00;70.50;;;;;;4493094;31;19997;-72
2022/11/07 00:16:22;;;;;;;;;;;19.00;70.50;;;;;;4493592;31;20054;-72
2022/11/07 00:18:49;;;;;;;;;;;18.90;70.50;;;;;;4493548;31;20008;-72
2022/11/07 00:21:14;;;;;;;;;;;18.90;70.50;;;;;;4493469;31;19958;-72
2022/11/07 00:23:40;;;;;;;;;;;18.90;70.50;;;;;;4478742;31;19969;-72
2022/11/07 00:26:07;;;;;;;;;;;18.90;70.50;;;;;;4493261;31;19985;-72
2022/11/07 00:28:34;;;;;;;;;;;18.90;70.60;;;;;;4493260;31;20027;-72
2022/11/07 00:31:00;;;;;;;;;;;18.90;70.60;;;;;;4493461;31;19993;-72
2022/11/07 00:33:25;;;;;;;;;;;18.90;70.60;;;;;;4493197;31;19965;-72
2022/11/07 00:35:51;;;;;;;;;;;18.90;70.60;;;;;;4492961;31;20419;-70
2022/11/07 00:38:17;;;;;;;;;;;18.90;70.70;;;;;;4493002;31;19969;-70
2022/11/07 00:40:42;;;;;;;;;;;18.90;70.60;;;;;;4465897;31;20051;-70
2022/11/07 00:43:08;;;;;;;;;;;18.80;70.60;;;;;;4492711;31;19977;-70
2022/11/07 00:45:34;;;;;;;;;;;18.90;70.70;;;;;;4478516;31;19962;-70
2022/11/07 00:48:00;;;;;;;;;;;18.80;70.60;;;;;;4493328;31;20104;-70
2022/11/07 00:50:26;;;;;;;;;;;18.90;70.70;;;;;;4492916;31;19957;-70
2022/11/07 00:52:51;;;;;;;;;;;18.80;70.70;;;;;;4493037;31;20049;-70
2022/11/07 00:55:17;;;;;;;;;;;18.80;70.70;;;;;;4492696;31;20372;-70
2022/11/07 00:57:43;;;;;;;;;;;18.80;70.70;;;;;;4492944;31;20021;-70
2022/11/07 01:00:09;;;;;;;;;;;18.80;70.70;;;;;;4492690;31;19985;-70
2022/11/07 01:02:34;;;;;;;;;;;18.80;70.70;;;;;;4492612;31;20117;-70
2022/11/07 01:05:09;;;;;;;;;;;18.80;70.70;;;;;;4492581;31;20100;-70
2022/11/07 01:07:35;;;;;;;;;;;18.80;70.70;;;;;;4493137;31;19977;-70
2022/11/07 01:10:01;;;;;;;;;;;18.80;70.70;;;;;;4492876;31;19981;-70
2022/11/07 01:12:26;;;;;;;;;;;18.80;70.70;;;;;;4492717;31;20310;-70
2022/11/07 01:14:52;;;;;;;;;;;18.80;70.80;;;;;;4492959;31;19965;-70
2022/11/07 01:17:18;;;;;;;;;;;18.70;70.80;;;;;;4492477;31;19977;-70
2022/11/07 01:19:44;;;;;;;;;;;18.70;70.80;;;;;;4492758;31;19977;-70
2022/11/07 01:22:10;;;;;;;;;;;18.70;70.80;;;;;;4492649;31;19958;-70
2022/11/07 01:24:36;;;;;;;;;;;18.70;70.80;;;;;;4492511;31;19976;-70
2022/11/07 01:27:01;;;;;;;;;;;18.70;70.80;;;;;;4492689;32;20006;-70
2022/11/07 01:29:27;;;;;;;;;;;18.70;70.80;;;;;;4492886;32;20029;-70
2022/11/07 01:31:53;;;;;;;;;;;18.70;70.80;;;;;;4492879;32;19962;-70
2022/11/07 01:34:19;;;;;;;;;;;18.70;70.80;;;;;;4492880;32;20323;-70
2022/11/07 01:36:44;;;;;;;;;;;18.70;70.90;;;;;;4494117;31;19970;-70
2022/11/07 01:39:10;;;;;;;;;;;18.70;70.90;;;;;;4496134;31;20158;-70
2022/11/07 01:41:36;;;;;;;;;;;18.70;70.90;;;;;;4495826;31;20096;-70
2022/11/07 01:44:02;;;;;;;;;;;18.70;71.80;;;;;;4495810;31;20511;-70
2022/11/07 01:46:37;;;;;;;;;;;18.70;70.90;;;;;;4495618;31;19973;-70
2022/11/07 01:49:12;;;;;;;;;;;18.70;70.90;;;;;;4495788;31;19982;-70
2022/11/07 01:51:41;;;;;;;;;;;18.70;71.00;;;;;;4495824;31;20126;-70
2022/11/07 01:54:07;;;;;;;;;;;18.60;70.90;;;;;;4496095;31;19981;-69
2022/11/07 01:56:36;;;;;;;;;;;18.60;70.90;;;;;;4495744;31;19957;-70
2022/11/07 01:59:02;;;;;;;;;;;18.60;70.90;;;;;;4495551;31;20024;-70
2022/11/07 02:01:27;;;;;;;;;;;18.60;70.90;;;;;;4495532;31;19973;-70
2022/11/07 02:03:55;;;;;;;;;;;18.60;70.90;;;;;;4495435;31;20453;-70
2022/11/07 02:06:27;;;;;;;;;;;18.70;71.00;;;;;;4495168;31;20058;-70
2022/11/07 02:08:53;;;;;;;;;;;18.60;71.00;;;;;;4495593;31;20391;-70
2022/11/07 02:11:19;;;;;;;;;;;18.60;71.00;;;;;;4495315;31;20515;-70
2022/11/07 02:13:45;;;;;;;;;;;18.60;71.00;;;;;;4495319;31;20304;-70
2022/11/07 02:16:10;;;;;;;;;;;18.60;71.00;;;;;;4495618;31;19980;-70
2022/11/07 02:18:38;;;;;;;;;;;18.60;71.00;;;;;;4495222;31;19965;-70
2022/11/07 02:21:17;;;;;;;;;;;18.60;71.00;;;;;;4495184;31;19984;-70
2022/11/07 02:23:54;;;;;;;;;;;18.60;71.00;;;;;;4495220;31;19995;-70
2022/11/07 02:26:20;;;;;;;;;;;18.60;71.00;;;;;;4495302;31;19982;-70
2022/11/07 02:28:47;;;;;;;;;;;18.60;71.00;;;;;;4495237;31;19981;-70
2022/11/07 02:31:12;;;;;;;;;;;18.60;71.00;;;;;;4495074;31;20332;-70
2022/11/07 02:33:38;;;;;;;;;;;18.60;71.00;;;;;;4495018;31;20391;-70
2022/11/07 02:36:04;;;;;;;;;;;18.60;71.00;;;;;;4495029;31;20398;-70
2022/11/07 02:38:31;;;;;;;;;;;18.50;70.90;;;;;;4495169;31;20307;-70
2022/11/07 02:40:59;;;;;;;;;;;18.60;71.00;;;;;;4495174;31;19985;-70
2022/11/07 02:43:25;;;;;;;;;;;18.50;71.00;;;;;;4480381;31;20027;-70
2022/11/07 02:45:52;;;;;;;;;;;18.50;70.90;;;;;;4494584;31;19988;-70
2022/11/07 02:48:18;;;;;;;;;;;18.50;71.00;;;;;;4494956;31;20454;-70
2022/11/07 02:50:43;;;;;;;;;;;18.50;70.90;;;;;;4494598;31;20513;-70
2022/11/07 02:53:09;;;;;;;;;;;18.50;70.90;;;;;;4494783;31;19974;-70
2022/11/07 02:55:35;;;;;;;;;;;18.50;70.90;;;;;;4495014;31;20405;-70
2022/11/07 02:58:00;;;;;;;;;;;18.50;70.90;;;;;;4494444;31;19957;-70
2022/11/07 03:00:26;;;;;;;;;;;18.50;70.90;;;;;;4494684;31;20031;-70
2022/11/07 03:02:52;;;;;;;;;;;18.50;70.90;;;;;;4494821;31;20015;-70
2022/11/07 03:05:18;;;;;;;;;;;18.50;71.90;;;;;;4494873;31;20369;-70
2022/11/07 03:07:45;;;;;;;;;;;18.50;70.90;;;;;;4480075;31;20375;-70
2022/11/07 03:10:11;;;;;;;;;;;18.50;70.90;;;;;;4494546;31;19970;-70
2022/11/07 03:12:37;;;;;;;;;;;18.50;71.00;;;;;;4494256;31;20280;-70
2022/11/07 03:15:03;;;;;;;;;;;18.50;71.00;;;;;;4494441;31;20059;-70
2022/11/07 03:17:29;;;;;;;;;;;18.50;70.90;;;;;;4494336;31;19974;-70
2022/11/07 03:19:54;;;;;;;;;;;18.50;71.00;;;;;;4494356;31;20307;-70
2022/11/07 03:22:22;;;;;;;;;;;18.50;71.00;;;;;;4494318;31;19981;-70
2022/11/07 03:24:48;;;;;;;;;;;18.50;71.00;;;;;;4494364;31;19989;-70
2022/11/07 03:27:14;;;;;;;;;;;18.50;70.90;;;;;;4494245;31;19962;-70
2022/11/07 03:29:40;;;;;;;;;;;18.50;71.00;;;;;;4494244;31;19989;-70
2022/11/07 03:32:06;;;;;;;;;;;18.40;70.90;;;;;;4494452;31;20022;-70
2022/11/07 03:34:31;;;;;;;;;;;18.40;71.00;;;;;;4494167;31;20467;-70
2022/11/07 03:36:57;;;;;;;;;;;18.40;71.00;;;;;;4493951;31;20386;-70
2022/11/07 03:39:24;;;;;;;;;;;18.40;71.00;;;;;;4493811;31;20107;-70
2022/11/07 03:41:49;;;;;;;;;;;18.40;71.00;;;;;;4493980;31;19978;-70
2022/11/07 03:44:15;;;;;;;;;;;18.50;71.00;;;;;;4493766;31;20079;-70
2022/11/07 03:46:41;;;;;;;;;;;18.40;71.10;;;;;;4479839;31;20406;-69
2022/11/07 03:49:06;;;;;;;;;;;18.40;71.00;;;;;;4493710;31;19962;-70
2022/11/07 03:51:32;;;;;;;;;;;18.40;71.00;;;;;;4493901;31;19993;-70
2022/11/07 03:53:58;;;;;;;;;;;18.40;71.10;;;;;;4493647;31;20334;-70
2022/11/07 03:56:23;;;;;;;;;;;18.40;71.10;;;;;;4479635;31;19962;-70
2022/11/07 03:58:49;;;;;;;;;;;18.40;71.10;;;;;;4493325;31;20075;-69
2022/11/07 04:01:15;;;;;;;;;;;18.40;71.00;;;;;;4493709;31;19977;-70
2022/11/07 04:03:40;;;;;;;;;;;18.40;71.00;;;;;;4493632;31;19977;-70
2022/11/07 04:06:06;;;;;;;;;;;18.40;71.10;;;;;;4493415;31;19978;-70
2022/11/07 04:08:32;;;;;;;;;;;18.40;71.10;;;;;;4493628;31;20020;-70
2022/11/07 04:10:57;;;;;;;;;;;18.40;71.20;;;;;;4493648;31;20024;-70
2022/11/07 04:18:52;;;;;;;;;;;18.40;71.10;;;;;;4493817;31;20021;-69
2022/11/07 04:21:18;;;;;;;;;;;18.40;71.10;;;;;;4493161;31;19981;-70
2022/11/07 04:23:44;;;;;;;;;;;18.30;71.10;;;;;;4493491;31;19973;-70
2022/11/07 04:28:54;;;;;;;;;;;18.30;71.00;;;;;;4493163;31;19984;-70
2022/11/07 04:31:21;;;;;;;;;;;18.30;71.00;;;;;;4493372;31;19973;-70
2022/11/07 04:33:46;;;;;;;;;;;18.40;71.00;;;;;;4493385;31;19986;-70
2022/11/07 04:36:12;;;;;;;;;;;18.30;71.00;;;;;;4493489;31;20012;-70
2022/11/07 04:38:38;;;;;;;;;;;18.30;71.00;;;;;;4493429;31;19981;-70
2022/11/07 04:41:04;;;;;;;;;;;18.40;71.00;;;;;;4493141;31;19957;-70
2022/11/07 04:43:29;;;;;;;;;;;18.30;71.00;;;;;;4493062;31;19969;-70
2022/11/07 04:45:55;;;;;;;;;;;18.30;71.00;;;;;;4493477;31;20001;-70
2022/11/07 04:48:21;;;;;;;;;;;18.30;71.10;;;;;;4493383;31;19976;-70
2022/11/07 04:50:46;;;;;;;;;;;18.30;71.10;;;;;;4492837;31;19980;-70
2022/11/07 04:53:13;;;;;;;;;;;18.30;71.10;;;;;;4493265;31;20446;-70
2022/11/07 04:55:39;;;;;;;;;;;18.30;71.20;;;;;;4493125;31;20036;-70
2022/11/07 04:58:04;;;;;;;;;;;18.30;71.20;;;;;;4493138;31;20076;-70
2022/11/07 05:00:30;;;;;;;;;;;18.30;71.20;;;;;;4492742;31;20094;-70
2022/11/07 05:02:56;;;;;;;;;;;18.20;71.10;;;;;;4492832;31;20299;-70
2022/11/07 05:05:21;;;;;;;;;;;18.20;72.00;;;;;;4492741;31;20437;-70
2022/11/07 05:07:47;;;;;;;;;;;18.20;71.20;;;;;;4492893;31;20055;-70
2022/11/07 05:10:16;;;;;;;;;;;18.20;71.30;;;;;;4492108;31;19992;-70
2022/11/07 05:12:41;;;;;;;;;;;18.20;71.20;;;;;;4492929;31;20513;-70
2022/11/07 05:15:07;;;;;;;;;;;18.20;71.30;;;;;;4478744;31;19961;-70
2022/11/07 05:17:33;;;;;;;;;;;18.20;71.20;;;;;;4493024;31;20108;-70
2022/11/07 05:19:59;;;;;;;;;;;18.20;71.30;;;;;;4478301;31;19962;-70
2022/11/07 05:25:09;;;;;;;;;;;18.20;71.30;;;;;;4492598;31;19986;-70
2022/11/07 05:27:35;;;;;;;;;;;18.20;71.30;;;;;;4492896;31;20326;-70
2022/11/07 05:30:01;;;;;;;;;;;18.20;71.30;;;;;;4492665;31;19973;-70
2022/11/07 05:32:26;;;;;;;;;;;18.20;71.30;;;;;;4492377;32;19965;-70
2022/11/07 05:34:52;;;;;;;;;;;18.20;71.30;;;;;;4492375;32;19994;-70
2022/11/07 05:37:17;;;;;;;;;;;18.20;71.30;;;;;;4478464;32;19984;-70
2022/11/07 05:39:49;;;;;;;;;;;18.10;71.30;;;;;;4493152;32;20015;-70
2022/11/07 05:42:15;;;;;;;;;;;18.20;71.30;;;;;;4492699;32;20375;-70
2022/11/07 05:44:41;;;;;;;;;;;18.10;71.30;;;;;;4492545;32;20295;-70
2022/11/07 05:47:07;;;;;;;;;;;18.10;71.30;;;;;;4492805;32;19976;-70
2022/11/07 05:49:32;;;;;;;;;;;18.10;71.30;;;;;;4465468;32;20096;-70
2022/11/07 05:51:58;;;;;;;;;;;18.10;71.30;;;;;;4493142;32;19977;-71
2022/11/07 05:54:26;;;;;;;;;;;18.10;71.30;;;;;;4492576;31;19962;-70
2022/11/07 05:56:54;;;;;;;;;;;18.10;71.40;;;;;;4491334;32;20010;-70
2022/11/07 05:59:20;;;;;;;;;;;18.10;71.40;;;;;;4492402;32;20426;-70
2022/11/07 06:01:45;;;;;;;;;;;18.10;71.40;;;;;;4492568;32;20075;-70
2022/11/07 06:04:11;;;;;;;;;;;18.10;71.40;;;;;;4492541;32;19969;-70
2022/11/07 06:06:37;;;;;;;;;;;18.10;71.40;;;;;;4492330;32;19981;-70
2022/11/07 06:09:02;;;;;;;;;;;18.10;71.40;;;;;;4492212;31;20017;-70
2022/11/07 06:11:29;;;;;;;;;;;18.10;71.40;;;;;;4492404;31;20104;-70
2022/11/07 06:13:55;;;;;;;;;;;18.10;72.30;;;;;;4491990;31;19996;-70
2022/11/07 06:16:21;;;;;;;;;;;18.10;71.40;;;;;;4492373;32;20303;-70
2022/11/07 06:18:46;;;;;;;;;;;18.00;71.30;;;;;;4491023;32;19984;-70
2022/11/07 06:21:12;;;;;;;;;;;18.10;71.50;;;;;;4490941;31;19990;-70
2022/11/07 06:23:38;;;;;;;;;;;18.10;71.50;;;;;;4494903;31;19980;-70
2022/11/07 06:26:05;;;;;;;;;;;18.00;71.40;;;;;;4495292;31;19986;-70
2022/11/07 06:28:30;;;;;;;;;;;18.00;71.50;;;;;;4494904;31;20326;-70
2022/11/07 06:30:59;;;;;;;;;;;18.10;71.40;;;;;;4495347;31;20098;-70
2022/11/07 06:33:25;;;;;;;;;;;18.00;71.40;;;;;;4495118;31;20050;-70
2022/11/07 06:35:51;;;;;;;;;;;18.00;71.40;;;;;;4495069;31;19981;-70
2022/11/07 06:38:16;;;;;;;;;;;18.00;71.40;;;;;;4495085;31;20371;-70
2022/11/07 06:40:42;;;;;;;;;;;18.10;71.50;;;;;;4495020;31;20425;-70
2022/11/07 06:43:09;;;;;;;;;;;18.00;71.40;;;;;;4495165;31;19984;-70
2022/11/07 06:45:35;;;;;;;;;;;18.00;71.40;;;;;;4494691;31;20079;-70
2022/11/07 06:48:01;;;;;;;;;;;18.00;71.50;;;;;;4495176;31;19965;-70
2022/11/07 06:50:27;;;;;;;;;;;18.00;71.40;;;;;;4494681;31;20315;-70
2022/11/07 06:52:53;;;;;;;;;;;18.00;71.40;;;;;;4494849;31;20024;-70
2022/11/07 06:55:20;;;;;;;;;;;18.00;71.50;;;;;;4480552;31;19985;-70
2022/11/07 06:57:46;;;;;;;;;;;18.00;71.50;;;;;;4495050;31;20310;-70
2022/11/07 07:00:13;;;;;;;;;;;18.00;71.50;;;;;;4494685;31;20481;-70
2022/11/07 07:02:42;;;;;;;;;;;18.00;71.50;;;;;;4494688;31;20005;-70
2022/11/07 07:05:08;;;;;;;;;;;18.00;71.50;;;;;;4494706;31;19981;-70
2022/11/07 07:07:34;;;;;;;;;;;18.00;71.60;;;;;;4494604;31;19973;-70
2022/11/07 07:09:59;;;;;;;;;;;18.00;71.50;;;;;;4494278;31;19969;-70
2022/11/07 07:12:26;;;;;;;;;;;18.00;71.60;;;;;;4494030;31;19988;-70
2022/11/07 07:14:52;;;;;;;;;;;18.00;71.60;;;;;;4494471;31;20001;-70
2022/11/07 07:17:17;;;;;;;;;;;18.00;71.50;;;;;;4494842;31;19965;-70
2022/11/07 07:19:43;;;;;;;;;;;18.00;71.60;;;;;;4494831;31;20182;-70
2022/11/07 07:22:15;;;;;;;;;;;17.90;71.50;;;;;;4494345;31;19984;-70
2022/11/07 07:24:41;;;;;;;;;;;18.00;71.60;;;;;;4494333;31;19965;-70
2022/11/07 07:27:07;;;;;;;;;;;17.90;71.50;;;;;;4494184;31;19992;-69
2022/11/07 07:29:33;;;;;;;;;;;18.00;71.60;;;;;;4494217;31;20295;-70
2022/11/07 07:31:58;;;;;;;;;;;18.00;71.40;;;;;;4494250;31;20067;-69
2022/11/07 07:34:24;;;;;;;;;;;17.90;71.10;;;;;;4493413;31;20067;-69
2022/11/07 07:36:51;;;;;;;;;;;17.90;71.00;;;;;;4494165;31;19965;-69
2022/11/07 07:39:17;;;;;;;;;;;17.90;71.30;;;;;;4494119;31;20397;-70
2022/11/07 07:41:43;;;;;;;;;;;18.00;71.60;;;;;;4493898;31;20001;-69
2022/11/07 07:44:08;;;;;;;;;;;18.00;71.80;;;;;;4494249;31;20268;-69
2022/11/07 07:46:34;;;;;;;;;;;18.00;71.90;;;;;;4494002;31;20295;-69
2022/11/07 07:49:00;;;;;;;;;;;18.00;71.80;;;;;;4493951;31;20350;-69
2022/11/07 07:51:26;;;;;;;;;;;18.10;71.50;;;;;;4493759;31;19979;-69
2022/11/07 07:53:52;;;;;;;;;;;18.20;71.10;;;;;;4493891;31;19976;-69
2022/11/07 07:56:18;;;;;;;;;;;18.30;70.90;;;;;;4493793;31;19992;-70
2022/11/07 07:58:44;;;;;;;;;;;18.40;70.70;;;;;;4493854;31;20319;-69
2022/11/07 08:01:10;;;;;;;;;;;18.50;70.40;;;;;;4493720;31;19992;-70
2022/11/07 08:03:36;;;;;;;;;;;18.70;70.10;;;;;;4493658;31;20327;-69
2022/11/07 08:06:04;;;;;;;;;;;18.80;69.90;;;;;;4479542;31;20315;-69
2022/11/07 08:08:30;;;;;;;;;;;18.90;69.50;;;;;;4493628;31;19982;-69
2022/11/07 08:11:02;;;;;;;;;;;19.10;69.20;;;;;;4493864;31;20012;-69
2022/11/07 08:13:28;;;;;;;;;;;19.20;68.80;;;;;;4493478;31;20322;-70
2022/11/07 08:15:54;;;;;;;;;;;19.30;68.40;;;;;;4466426;31;20035;-69
2022/11/07 08:18:21;;;;;;;;;;;19.50;68.20;;;;;;4493468;31;20100;-70
2022/11/07 08:20:50;;;;;;;;;;;19.60;67.90;;;;;;4493811;31;20385;-70
2022/11/07 08:23:16;;;;;;;;;;;19.60;67.70;;;;;;4493390;31;19973;-70
2022/11/07 08:25:42;;;;;;;;;;;19.70;67.50;;;;;;4493469;31;19981;-70
2022/11/07 08:28:09;;;;;;;;;;;19.80;67.40;;;;;;4493648;31;19992;-70
2022/11/07 08:30:34;;;;;;;;;;;19.80;67.20;;;;;;4493380;31;19973;-70
2022/11/07 08:33:01;;;;;;;;;;;19.90;67.20;;;;;;4493293;31;19969;-67
2022/11/07 08:35:28;;;;;;;;;;;19.90;67.20;;;;;;4493145;31;20035;-69
2022/11/07 08:37:53;;;;;;;;;;;20.00;67.00;;;;;;4492617;31;19992;-69
2022/11/07 08:40:19;;;;;;;;;;;20.00;66.90;;;;;;4492354;31;20047;-69
2022/11/07 08:42:45;;;;;;;;;;;20.00;66.80;;;;;;4493294;31;19980;-69
2022/11/07 08:45:11;;;;;;;;;;;20.10;66.80;;;;;;4493022;31;19970;-69
2022/11/07 08:47:36;;;;;;;;;;;20.10;66.60;;;;;;4493162;31;19985;-69
2022/11/07 08:50:03;;;;;;;;;;;20.10;66.60;;;;;;4493005;31;19966;-69
2022/11/07 08:52:28;;;;;;;;;;;20.20;66.50;;;;;;4492822;31;20059;-69
2022/11/07 08:54:54;;;;;;;;;;;20.20;66.40;;;;;;4493081;31;19978;-69
2022/11/07 08:57:20;;;;;;;;;;;20.20;66.30;;;;;;4493017;31;19980;-69
2022/11/07 08:59:45;;;;;;;;;;;20.20;66.30;;;;;;4493200;31;19969;-69
2022/11/07 09:02:11;;;;;;;;;;;20.30;66.30;;;;;;4492875;31;19972;-69
2022/11/07 09:04:37;;;;;;;;;;;20.30;66.30;;;;;;4493130;31;19993;-69
2022/11/07 09:07:03;;;;;;;;;;;20.30;66.20;;;;;;4492818;31;20354;-69
2022/11/07 09:09:28;;;;;;;;;;;20.30;66.10;;;;;;4492840;31;20027;-70
2022/11/07 09:11:54;;;;;;;;;;;20.30;66.10;;;;;;4493031;31;19973;-67
2022/11/07 09:14:20;;;;;;;;;;;20.30;66.90;;;;;;4478501;31;19970;-70
2022/11/07 09:16:45;;;;;;;;;;;20.30;66.10;;;;;;4492811;31;19981;-70
2022/11/07 09:19:11;;;;;;;;;;;20.40;66.00;;;;;;4492678;31;19981;-70
2022/11/07 09:21:37;;;;;;;;;;;20.40;66.00;;;;;;4492708;31;19966;-70
2022/11/07 09:24:03;;;;;;;;;;;20.40;66.00;;;;;;4478595;31;20312;-70
2022/11/07 09:26:28;;;;;;;;;;;20.40;66.00;;;;;;4492703;31;19974;-70
2022/11/07 09:28:55;;;;;;;;;;;20.40;66.10;;;;;;4492649;31;20012;-70
2022/11/07 09:31:21;;;;;;;;;;;20.40;66.10;;;;;;4492848;31;20371;-71
2022/11/07 09:33:46;;;;;;;;;;;20.40;66.10;;;;;;4492388;32;20079;-71
2022/11/07 09:36:12;;;;;;;;;;;20.40;66.10;;;;;;4492882;32;20011;-71
2022/11/07 09:38:38;;;;;;;;;;;20.50;66.10;;;;;;4492676;32;19980;-71
2022/11/07 09:41:05;;;;;;;;;;;20.50;66.10;;;;;;4492279;32;20390;-70
2022/11/07 09:43:38;;;;;;;;;;;20.50;66.10;;;;;;4492570;32;20163;-71
2022/11/07 09:46:04;;;;;;;;;;;20.50;66.20;;;;;;4492491;32;19989;-71
2022/11/07 09:48:37;;;;;;;;;;;20.50;66.20;;;;;;4492404;32;19958;-71
2022/11/07 09:51:03;;;;;;;;;;;20.60;66.20;;;;;;4492237;32;20005;-71
2022/11/07 09:53:35;;;;;;;;;;;20.60;66.20;;;;;;4492659;32;19962;-70
2022/11/07 09:56:03;;;;;;;;;;;20.60;66.20;;;;;;4492174;31;19970;-72
2022/11/07 09:58:33;;;;;;;;;;;20.60;66.10;;;;;;4494917;31;19969;-70
2022/11/07 10:01:02;;;;;;;;;;;20.70;66.20;;;;;;4495690;31;19982;-70
2022/11/07 10:03:28;;;;;;;;;;;20.70;66.10;;;;;;4495373;31;19974;-71
2022/11/07 10:06:05;;;;;;;;;;;20.80;66.10;;;;;;4495190;31;20004;-71
2022/11/07 10:08:39;;;;;;;;;;;20.80;66.10;;;;;;4495733;31;19983;-71
2022/11/07 10:11:24;;;;;;;;;;;20.80;66.10;;;;;;4480898;31;19984;-71
2022/11/07 10:13:56;;;;;;;;;;;20.80;66.10;;;;;;4495280;31;19981;-71
2022/11/07 10:16:22;;;;;;;;;;;20.80;66.10;;;;;;4495317;31;19974;-70
2022/11/07 10:19:17;;;;;;;;;;;20.90;66.10;;;;;;4495139;31;20013;-70
2022/11/07 10:21:58;;;;;;;;;;;20.90;66.10;;;;;;4484642;31;20044;-70
2022/11/07 10:24:56;;;;;;;;;;;20.90;66.20;;;;;;4495087;31;19997;-70
2022/11/07 10:27:22;;;;;;;;;;;20.90;66.20;;;;;;4468224;31;20048;-70
2022/11/07 10:29:52;;;;;;;;;;;20.90;66.10;;;;;;4495200;31;19981;-70
2022/11/07 10:32:28;;;;;;;;;;;20.90;66.10;;;;;;4494943;31;19992;-71
2022/11/07 10:34:53;;;;;;;;;;;20.90;66.20;;;;;;4495057;31;20369;-70
2022/11/07 10:37:19;;;;;;;;;;;20.90;66.20;;;;;;4494899;31;19962;-70
2022/11/07 10:39:45;;;;;;;;;;;21.00;66.30;;;;;;4494836;31;19989;-70
2022/11/07 10:42:21;;;;;;;;;;;21.00;66.30;;;;;;4494709;31;20252;-71
2022/11/07 10:44:47;;;;;;;;;;;21.00;66.30;;;;;;4495090;31;19985;-71
2022/11/07 10:47:17;;;;;;;;;;;21.00;66.30;;;;;;4494758;31;20362;-71
2022/11/07 10:50:00;;;;;;;;;;;21.00;66.20;;;;;;4494666;31;20025;-70
2022/11/07 10:52:26;;;;;;;;;;;21.00;66.20;;;;;;4494990;31;20475;-70
2022/11/07 10:55:03;;;;;;;;;;;21.00;66.20;;;;;;4494420;31;19988;-71
2022/11/07 10:57:29;;;;;;;;;;;21.00;66.30;;;;;;4494898;31;20024;-71
2022/11/07 10:59:56;;;;;;;;;;;21.00;66.30;;;;;;4480176;31;20150;-70
2022/11/07 11:02:21;;;;;;;;;;;21.00;66.40;;;;;;4494610;31;19981;-70
2022/11/07 11:04:53;;;;;;;;;;;21.00;66.30;;;;;;4494691;31;19981;-71
2022/11/07 11:07:19;;;;;;;;;;;21.10;66.30;;;;;;4495004;31;20398;-70
2022/11/07 11:09:55;;;;;;;;;;;21.10;66.30;;;;;;4494522;31;19977;-73
2022/11/07 11:12:25;;;;;;;;;;;21.10;66.20;;;;;;4494614;31;20074;-71
2022/11/07 11:15:01;;;;;;;;;;;21.20;66.30;;;;;;4494617;31;19978;-70
2022/11/07 11:17:27;;;;;;;;;;;21.20;66.20;;;;;;4494605;31;19979;-70
2022/11/07 11:19:53;;;;;;;;;;;21.20;66.00;;;;;;4494148;31;20054;-72
2022/11/07 11:22:20;;;;;;;;;;;21.20;66.00;;;;;;4494146;31;20108;-71
2022/11/07 11:24:56;;;;;;;;;;;21.20;66.00;;;;;;4494417;31;20039;-71
2022/11/07 11:27:24;;;;;;;;;;;21.30;66.00;;;;;;4494412;31;20413;-72
2022/11/07 11:30:05;;;;;;;;;;;21.30;65.90;;;;;;4494238;31;19977;-71
2022/11/07 11:32:47;;;;;;;;;;;21.30;66.00;;;;;;4494030;31;19977;-71
2022/11/07 11:35:28;;;;;;;;;;;21.30;65.90;;;;;;4494609;31;20017;-72
2022/11/07 11:38:03;;;;;;;;;;;21.30;66.00;;;;;;4494205;31;20404;-71
2022/11/07 11:40:33;;;;;;;;;;;21.30;66.10;;;;;;4494190;31;19970;-71
2022/11/07 11:43:03;;;;;;;;;;;21.20;66.10;;;;;;4494158;31;19996;-70
2022/11/07 11:45:38;;;;;;;;;;;21.20;66.20;;;;;;4494260;31;20402;-70
2022/11/07 11:48:24;;;;;;;;;;;21.20;66.40;;;;;;4494026;31;20024;-70
2022/11/07 11:50:53;;;;;;;;;;;21.10;66.50;;;;;;4493463;31;19986;-70
2022/11/07 11:53:20;;;;;;;;;;;21.10;66.70;;;;;;4493233;31;19969;-69
2022/11/07 11:56:06;;;;;;;;;;;21.00;66.70;;;;;;4493820;31;20405;-70
2022/11/07 11:58:35;;;;;;;;;;;21.00;66.90;;;;;;4485435;31;20426;-70
2022/11/07 12:01:27;;;;;;;;;;;21.00;67.00;;;;;;4493839;31;19969;-70
2022/11/07 12:03:58;;;;;;;;;;;21.00;67.20;;;;;;4475088;31;19974;-71
2022/11/07 12:06:51;;;;;;;;;;;20.90;67.20;;;;;;4493785;31;20082;-71
2022/11/07 12:09:31;;;;;;;;;;;20.90;67.30;;;;;;4491153;31;20062;-71
2022/11/07 12:12:00;;;;;;;;;;;20.90;67.30;;;;;;4493979;31;19965;-70
2022/11/07 12:14:31;;;;;;;;;;;21.00;67.30;;;;;;4493572;31;19966;-70
2022/11/07 12:16:57;;;;;;;;;;;21.00;67.30;;;;;;4493323;31;20086;-70
2022/11/07 12:19:29;;;;;;;;;;;21.00;67.40;;;;;;4492773;31;20148;-70
2022/11/07 12:22:00;;;;;;;;;;;21.00;67.40;;;;;;4493410;31;20051;-70
2022/11/07 12:24:44;;;;;;;;;;;21.00;67.50;;;;;;4493148;31;20071;-70
2022/11/07 12:27:33;;;;;;;;;;;21.00;67.50;;;;;;4493007;31;19969;-71
2022/11/07 12:30:02;;;;;;;;;;;21.00;67.50;;;;;;4479218;31;19977;-70
2022/11/07 12:32:38;;;;;;;;;;;21.00;67.60;;;;;;4493601;31;19973;-70
2022/11/07 12:35:21;;;;;;;;;;;21.00;67.60;;;;;;4492972;31;20076;-70
2022/11/07 12:37:47;;;;;;;;;;;21.00;67.60;;;;;;4493282;31;19982;-70
2022/11/07 12:40:22;;;;;;;;;;;21.00;67.60;;;;;;4493545;31;20024;-71
2022/11/07 12:42:57;;;;;;;;;;;21.00;67.60;;;;;;4478963;31;20016;-71
2022/11/07 12:45:38;;;;;;;;;;;21.00;67.70;;;;;;4492773;31;20342;-71
2022/11/07 12:48:07;;;;;;;;;;;21.00;67.70;;;;;;4493421;31;20060;-71
2022/11/07 12:50:52;;;;;;;;;;;21.00;67.70;;;;;;4492260;31;19977;-68
2022/11/07 12:53:23;;;;;;;;;;;21.00;67.70;;;;;;4493017;31;19969;-70
2022/11/07 12:55:57;;;;;;;;;;;21.00;67.80;;;;;;4492669;31;19969;-71
2022/11/07 12:58:26;;;;;;;;;;;21.00;67.70;;;;;;4492907;31;20021;-71
2022/11/07 13:00:52;;;;;;;;;;;21.00;67.80;;;;;;4493109;31;20395;-71
2022/11/07 13:03:18;;;;;;;;;;;21.00;67.80;;;;;;4492884;31;19961;-71
2022/11/07 13:05:49;;;;;;;;;;;21.00;67.80;;;;;;4492771;31;20040;-71
2022/11/07 13:08:15;;;;;;;;;;;21.00;67.80;;;;;;4492941;31;19969;-70
2022/11/07 13:11:00;;;;;;;;;;;21.00;67.80;;;;;;4465553;31;19984;-70
2022/11/07 13:13:25;;;;;;;;;;;21.00;67.90;;;;;;4492380;31;20238;-72
2022/11/07 13:15:51;;;;;;;;;;;21.00;67.90;;;;;;4491306;31;20065;-71
2022/11/07 13:18:26;;;;;;;;;;;21.00;68.00;;;;;;4492531;31;19984;-71
2022/11/07 13:20:59;;;;;;;;;;;21.00;68.00;;;;;;4492997;31;19974;-70
2022/11/07 13:23:26;;;;;;;;;;;21.00;68.00;;;;;;4492654;31;20401;-70
2022/11/07 13:25:59;;;;;;;;;;;21.00;68.00;;;;;;4492309;31;20115;-71
2022/11/07 13:28:28;;;;;;;;;;;21.00;68.00;;;;;;4478240;31;19970;-71
2022/11/07 13:30:55;;;;;;;;;;;21.00;68.00;;;;;;4492403;31;19973;-70
2022/11/07 13:33:28;;;;;;;;;;;21.00;68.10;;;;;;4492185;32;19965;-71
2022/11/07 13:35:56;;;;;;;;;;;21.00;68.00;;;;;;4492562;32;20031;-71
2022/11/07 13:38:22;;;;;;;;;;;21.00;68.00;;;;;;4492673;32;19978;-71
2022/11/07 13:40:51;;;;;;;;;;;21.00;68.10;;;;;;4492369;32;20087;-71
2022/11/07 13:43:18;;;;;;;;;;;21.00;68.20;;;;;;4492310;32;19978;-71
2022/11/07 13:45:44;;;;;;;;;;;21.00;68.20;;;;;;4492299;32;20029;-71
2022/11/07 13:48:28;;;;;;;;;;;21.00;68.30;;;;;;4477934;32;20013;-71
2022/11/07 13:51:04;;;;;;;;;;;21.00;68.40;;;;;;4492036;32;20036;-70
2022/11/07 13:53:36;;;;;;;;;;;21.00;68.40;;;;;;4492525;32;20099;-69
2022/11/07 13:56:19;;;;;;;;;;;20.90;68.40;;;;;;4492673;32;19981;-69
2022/11/07 13:58:45;;;;;;;;;;;20.90;68.40;;;;;;4492761;32;20335;-70
2022/11/07 14:01:11;;;;;;;;;;;20.90;68.50;;;;;;4492157;32;19969;-70
2022/11/07 14:03:37;;;;;;;;;;;20.90;68.40;;;;;;4492227;32;20054;-70
2022/11/07 14:06:03;;;;;;;;;;;21.00;68.40;;;;;;4492528;32;20373;-70
2022/11/07 14:08:31;;;;;;;;;;;21.00;68.30;;;;;;4492392;32;19981;-70
2022/11/07 14:10:57;;;;;;;;;;;21.00;68.20;;;;;;4492452;32;19985;-70
2022/11/07 14:13:30;;;;;;;;;;;21.00;68.20;;;;;;4492358;32;19984;-69
2022/11/07 14:16:12;;;;;;;;;;;21.00;68.20;;;;;;4492443;32;19989;-70
2022/11/07 14:18:41;;;;;;;;;;;21.00;68.20;;;;;;4492512;32;20090;-70
2022/11/07 14:21:18;;;;;;;;;;;21.00;69.10;;;;;;4492030;32;19985;-71
2022/11/07 14:23:45;;;;;;;;;;;21.00;68.20;;;;;;4492345;32;19985;-70
2022/11/07 14:26:22;;;;;;;;;;;20.90;68.20;;;;;;4492127;32;20051;-70
2022/11/07 14:28:47;;;;;;;;;;;21.00;68.30;;;;;;4491932;32;20127;-73
2022/11/07 14:31:19;;;;;;;;;;;20.90;68.20;;;;;;4491980;32;20013;-71
2022/11/07 14:33:52;;;;;;;;;;;20.90;68.10;;;;;;4492418;32;20021;-72